createdAt,value
2023-04-02T00:01:50.352Z,97198.09
2023-04-02T00:04:23.560Z,97205.53
2023-04-02T00:07:15.712Z,97206.16
2023-04-02T00:09:46.555Z,97206.38
2023-04-02T00:12:24.619Z,97201.81
2023-04-02T00:14:55.437Z,97203.69
2023-04-02T00:17:25.944Z,97209.06
2023-04-02T00:19:58.661Z,97207.19
2023-04-02T00:22:29.479Z,97210.91
2023-04-02T00:25:01.600Z,97209.06
2023-04-02T00:27:31.971Z,97210.09
2023-04-02T00:30:01.927Z,97208.22
2023-04-02T00:32:33.102Z,97212.78
2023-04-02T00:35:02.343Z,97215.47
2023-04-02T00:37:39.111Z,97216.28
2023-04-02T00:40:15.579Z,97215.47
2023-04-02T00:42:44.927Z,97211.97
2023-04-02T00:45:19.857Z,97216.28
2023-04-02T00:47:48.791Z,97213.59
2023-04-02T00:50:24.705Z,97220.84
2023-04-02T00:52:54.009Z,97218.16
2023-04-02T00:55:26.318Z,97215.47
2023-04-02T00:58:00.774Z,97215.47
2023-04-02T01:00:30.762Z,97221.88
2023-04-02T01:03:34.849Z,97224.56
2023-04-02T01:06:10.916Z,97224.56
2023-04-02T01:08:54.469Z,97232.63
2023-04-02T01:11:55.765Z,97233.47
2023-04-02T01:14:36.933Z,97232.63
2023-04-02T01:17:11.060Z,97242.34
2023-04-02T01:20:26.430Z,97236.34
2023-04-02T01:22:58.213Z,97234.28
2023-04-02T01:25:29.948Z,97238.00
2023-04-02T01:28:05.792Z,97235.31
2023-04-02T01:30:36.836Z,97242.53
2023-04-02T01:33:06.480Z,97231.78
2023-04-02T01:35:37.977Z,97233.66
2023-04-02T01:38:10.726Z,97241.53
2023-04-02T01:40:41.189Z,97235.31
2023-04-02T01:43:17.355Z,97237.16
2023-04-02T01:45:47.788Z,97244.22
2023-04-02T01:48:18.340Z,97242.53
2023-04-02T01:50:47.370Z,97241.72
2023-04-02T01:53:17.907Z,97241.72
2023-04-02T01:55:48.965Z,97234.47
2023-04-02T01:58:20.972Z,97230.16
2023-04-02T02:00:53.380Z,97231.78
2023-04-02T02:03:22.293Z,97247.09
2023-04-02T02:05:51.225Z,97239.84
2023-04-02T02:08:35.861Z,97248.75
2023-04-02T02:11:05.129Z,97248.75
2023-04-02T02:13:33.791Z,97258.47
2023-04-02T02:16:04.808Z,97255.97
2023-04-02T02:18:33.505Z,97262.19
2023-04-02T02:21:02.280Z,97250.59
2023-04-02T02:23:31.258Z,97252.47
2023-04-02T02:26:00.229Z,97257.03
2023-04-02T02:28:29.462Z,97263.22
2023-04-02T02:31:00.189Z,97256.19
2023-04-02T02:33:32.248Z,97263.41
2023-04-02T02:36:01.880Z,97258.91
2023-04-02T02:38:47.508Z,97264.28
2023-04-02T02:41:20.863Z,97260.53
2023-04-02T02:43:57.972Z,97262.59
2023-04-02T02:46:26.464Z,97270.66
2023-04-02T02:48:56.808Z,97267.97
2023-04-02T02:51:29.116Z,97267.97
2023-04-02T02:54:01.000Z,97275.84
2023-04-02T02:56:29.497Z,97272.53
2023-04-02T02:58:58.286Z,97284.09
2023-04-02T03:01:29.081Z,97280.59
2023-04-02T03:03:59.552Z,97284.09
2023-04-02T03:06:28.210Z,97284.91
2023-04-02T03:09:03.445Z,97290.50
2023-04-02T03:11:37.813Z,97287.81
2023-04-02T03:14:15.632Z,97291.34
2023-04-02T03:16:46.053Z,97292.16
2023-04-02T03:19:25.556Z,97285.13
2023-04-02T03:21:55.986Z,97294.84
2023-04-02T03:24:33.465Z,97299.41
2023-04-02T03:27:04.652Z,97299.63
2023-04-02T03:29:34.344Z,97295.88
2023-04-02T03:32:05.809Z,97296.72
2023-04-02T03:34:38.290Z,97305.81
2023-04-02T03:37:09.604Z,97299.41
2023-04-02T03:39:40.224Z,97308.50
2023-04-02T03:42:11.485Z,97309.31
2023-04-02T03:44:44.780Z,97308.50
2023-04-02T03:47:15.829Z,97310.16
2023-04-02T03:49:49.311Z,97310.38
2023-04-02T03:52:21.640Z,97316.56
2023-04-02T03:54:54.089Z,97313.06
2023-04-02T03:57:28.006Z,97318.44
2023-04-02T03:59:59.651Z,97321.94
2023-04-02T04:02:39.934Z,97330.81
2023-04-02T04:05:23.515Z,97321.94
2023-04-02T04:07:53.879Z,97331.88
2023-04-02T04:10:25.101Z,97337.25
2023-04-02T04:12:55.591Z,97335.56
2023-04-02T04:15:27.095Z,97340.94
2023-04-02T04:18:02.167Z,97343.63
2023-04-02T04:20:35.868Z,97347.38
2023-04-02T04:23:15.444Z,97350.69
2023-04-02T04:25:43.960Z,97356.06
2023-04-02T04:28:21.526Z,97357.91
2023-04-02T04:30:52.787Z,97357.91
2023-04-02T04:33:23.476Z,97357.06
2023-04-02T04:35:55.724Z,97358.94
2023-04-02T04:38:32.962Z,97363.50
2023-04-02T04:41:05.814Z,97357.06
2023-04-02T04:43:43.514Z,97361.63
2023-04-02T04:46:14.039Z,97370.50
2023-04-02T04:48:49.430Z,97374.25
2023-04-02T04:51:22.629Z,97373.41
2023-04-02T04:53:52.567Z,97377.75
2023-04-02T04:56:23.577Z,97382.31
2023-04-02T04:58:54.265Z,97385.00
2023-04-02T05:01:25.638Z,97383.31
2023-04-02T05:03:58.883Z,97395.75
2023-04-02T05:06:37.568Z,97386.00
2023-04-02T05:09:12.805Z,97392.22
2023-04-02T05:11:44.892Z,97392.41
2023-04-02T05:14:27.127Z,97399.25
2023-04-02T05:16:59.984Z,97402.97
2023-04-02T05:19:32.291Z,97411.03
2023-04-02T05:22:07.403Z,97416.41
2023-04-02T05:24:46.191Z,97412.69
2023-04-02T05:27:25.076Z,97414.56
2023-04-02T05:29:58.003Z,97428.81
2023-04-02T05:32:29.596Z,97426.94
2023-04-02T05:34:58.220Z,97432.31
2023-04-02T05:37:29.855Z,97433.38
2023-04-02T05:40:00.367Z,97444.94
2023-04-02T05:42:30.278Z,97442.25
2023-04-02T05:45:08.236Z,97451.97
2023-04-02T05:47:41.271Z,97450.13
2023-04-02T05:50:23.215Z,97461.72
2023-04-02T05:52:57.021Z,97454.25
2023-04-02T05:55:43.659Z,97462.72
2023-04-02T05:58:34.726Z,97472.25
2023-04-02T06:01:20.988Z,97477.63
2023-04-02T06:03:57.496Z,97481.13
2023-04-02T06:06:45.127Z,97474.50
2023-04-02T06:09:18.253Z,97485.28
2023-04-02T06:11:48.298Z,97493.75
2023-04-02T06:14:17.612Z,97495.03
2023-04-02T06:16:46.558Z,97497.72
2023-04-02T06:19:20.128Z,97507.63
2023-04-02T06:21:49.931Z,97513.84
2023-04-02T06:24:23.028Z,97519.84
2023-04-02T06:26:53.296Z,97529.56
2023-04-02T06:29:26.798Z,97534.13
2023-04-02T06:31:56.856Z,97544.66
2023-04-02T06:34:26.816Z,97551.31
2023-04-02T06:36:57.853Z,97564.94
2023-04-02T06:39:28.579Z,97567.44
2023-04-02T06:42:01.040Z,97563.91
2023-04-02T06:44:31.307Z,97571.13
2023-04-02T06:47:00.951Z,97577.13
2023-04-02T06:49:34.450Z,97583.97
2023-04-02T06:52:03.731Z,97586.84
2023-04-02T06:54:33.581Z,97590.56
2023-04-02T06:57:02.170Z,97599.44
2023-04-02T06:59:30.730Z,97599.28
2023-04-02T07:02:03.490Z,97606.69
2023-04-02T07:04:32.010Z,97604.81
2023-04-02T07:07:00.593Z,97607.53
2023-04-02T07:09:29.061Z,97605.88
2023-04-02T07:11:58.971Z,97615.34
2023-04-02T07:14:27.634Z,97622.16
2023-04-02T07:16:56.193Z,97625.44
2023-04-02T07:19:24.722Z,97629.41
2023-04-02T07:21:53.145Z,97632.75
2023-04-02T07:24:21.569Z,97639.13
2023-04-02T07:26:50.001Z,97639.34
2023-04-02T07:29:19.993Z,97654.44
2023-04-02T07:31:48.465Z,97655.47
2023-04-02T07:34:16.904Z,97662.31
2023-04-02T07:36:45.425Z,97659.63
2023-04-02T07:39:13.938Z,97667.69
2023-04-02T07:41:55.370Z,97674.09
2023-04-02T07:44:25.235Z,97680.09
2023-04-02T07:46:53.711Z,97682.78
2023-04-02T07:49:22.278Z,97685.47
2023-04-02T07:51:50.869Z,97691.03
2023-04-02T07:54:19.383Z,97706.16
2023-04-02T07:56:47.897Z,97706.34
2023-04-02T07:59:16.457Z,97700.97
2023-04-02T08:01:46.340Z,97709.03
2023-04-02T08:04:19.497Z,97717.75
2023-04-02T08:06:48.141Z,97719.38
2023-04-02T08:09:16.683Z,97718.38
2023-04-02T08:11:46.721Z,97728.31
2023-04-02T08:14:15.625Z,97738.81
2023-04-02T08:16:49.726Z,97736.69
2023-04-02T08:19:18.282Z,97738.16
2023-04-02T08:21:48.202Z,97752.25
2023-04-02T08:24:19.114Z,97755.56
2023-04-02T08:26:47.848Z,97756.41
2023-04-02T08:29:16.978Z,97766.13
2023-04-02T08:31:45.468Z,97762.63
2023-04-02T08:34:15.550Z,97764.25
2023-04-02T08:36:45.643Z,97780.22
2023-04-02T08:39:14.770Z,97778.34
2023-04-02T08:41:46.918Z,97782.13
2023-04-02T08:44:36.903Z,97802.81
2023-04-02T08:47:06.460Z,97798.22
2023-04-02T08:49:39.011Z,97800.91
2023-04-02T08:52:07.465Z,97802.94
2023-04-02T08:54:38.113Z,97799.22
2023-04-02T08:57:08.695Z,97807.72
2023-04-02T08:59:38.021Z,97807.09
2023-04-02T09:02:25.629Z,97813.47
2023-04-02T09:04:56.070Z,97817.22
2023-04-02T09:07:24.717Z,97817.38
2023-04-02T09:09:53.199Z,97827.31
2023-04-02T09:12:23.834Z,97825.44
2023-04-02T09:15:01.062Z,97827.97
2023-04-02T09:17:34.724Z,97842.44
2023-04-02T09:20:18.079Z,97843.25
2023-04-02T09:22:46.844Z,97849.66
2023-04-02T09:25:21.305Z,97855.03
2023-04-02T09:27:50.842Z,97849.66
2023-04-02T09:30:29.661Z,97867.63
2023-04-02T09:33:01.041Z,97863.09
2023-04-02T09:35:32.471Z,97864.94
2023-04-02T09:38:21.088Z,97864.94
2023-04-02T09:40:52.647Z,97872.19
2023-04-02T09:43:22.406Z,97877.56
2023-04-02T09:45:59.505Z,97885.63
2023-04-02T09:48:31.195Z,97882.13
2023-04-02T09:51:17.564Z,97898.03
2023-04-02T09:53:47.272Z,97891.66
2023-04-02T09:56:18.774Z,97894.34
2023-04-02T09:58:47.835Z,97900.72
2023-04-02T10:01:32.306Z,97899.91
2023-04-02T10:04:01.229Z,97897.22
2023-04-02T10:06:31.514Z,97909.81
2023-04-02T10:08:59.955Z,97905.47
2023-04-02T10:11:43.723Z,97915.38
2023-04-02T10:14:19.349Z,97921.41
2023-04-02T10:16:50.862Z,97918.72
2023-04-02T10:19:26.487Z,97934.84
2023-04-02T10:21:57.549Z,97926.59
2023-04-02T10:24:28.725Z,97934.28
2023-04-02T10:27:04.111Z,97932.81
2023-04-02T10:30:10.427Z,97938.38
2023-04-02T10:32:42.312Z,97935.88
2023-04-02T10:35:16.965Z,97946.44
2023-04-02T10:38:42.713Z,97951.34
2023-04-02T10:41:23.125Z,97954.44
2023-04-02T10:44:20.469Z,97956.56
2023-04-02T10:46:57.225Z,97955.69
2023-04-02T10:49:32.289Z,97963.41
2023-04-02T10:52:03.451Z,97959.88
2023-04-02T10:54:41.226Z,97971.66
2023-04-02T10:57:20.836Z,97964.41
2023-04-02T10:59:52.611Z,97970.06
2023-04-02T11:02:39.779Z,97973.41
2023-04-02T11:05:22.535Z,97972.75
2023-04-02T11:07:57.502Z,97981.84
2023-04-02T11:10:26.111Z,97994.25
2023-04-02T11:12:57.919Z,97992.63
2023-04-02T11:15:26.414Z,97993.81
2023-04-02T11:17:54.888Z,98002.72
2023-04-02T11:21:04.970Z,98003.53
2023-04-02T11:23:58.298Z,98013.28
2023-04-02T11:26:47.446Z,98008.75
2023-04-02T11:29:22.544Z,98023.47
2023-04-02T11:31:53.081Z,98022.63
2023-04-02T11:35:26.226Z,98022.81
2023-04-02T11:37:56.437Z,98027.19
2023-04-02T11:40:49.507Z,98029.22
2023-04-02T11:43:52.642Z,98029.44
2023-04-02T11:46:47.518Z,98030.25
2023-04-02T11:49:42.040Z,98032.94
2023-04-02T11:52:23.345Z,98045.34
2023-04-02T11:55:29.187Z,98029.59
2023-04-02T11:58:28.514Z,98042.88
2023-04-02T12:01:34.823Z,98039.16
2023-04-02T12:05:04.499Z,98046.56
2023-04-02T12:08:05.880Z,98051.75
2023-04-02T12:10:34.925Z,98047.38
2023-04-02T12:13:03.437Z,98055.28
2023-04-02T12:15:40.592Z,98063.50
2023-04-02T12:18:16.089Z,98061.59
2023-04-02T12:20:50.938Z,98071.13
2023-04-02T12:23:21.489Z,98068.91
2023-04-02T12:25:58.534Z,98065.84
2023-04-02T12:28:28.915Z,98070.38
2023-04-02T12:31:06.202Z,98072.25
2023-04-02T12:33:37.574Z,98077.44
2023-04-02T12:36:10.087Z,98077.25
2023-04-02T12:38:45.888Z,98076.25
2023-04-02T12:41:24.506Z,98084.31
2023-04-02T12:43:59.583Z,98077.06
2023-04-02T12:46:28.274Z,98088.00
2023-04-02T12:49:06.182Z,98090.50
2023-04-02T12:51:37.147Z,98092.38
2023-04-02T12:54:06.276Z,98095.06
2023-04-02T12:56:34.839Z,98094.88
2023-04-02T12:59:03.340Z,98098.19
2023-04-02T13:01:34.001Z,98103.75
2023-04-02T13:04:04.991Z,98104.41
2023-04-02T13:06:33.637Z,98109.78
2023-04-02T13:09:04.862Z,98119.81
2023-04-02T13:11:37.525Z,98118.16
2023-04-02T13:14:07.790Z,98121.28
2023-04-02T13:16:36.980Z,98123.78
2023-04-02T13:19:24.030Z,98110.16
2023-04-02T13:21:53.413Z,98120.91
2023-04-02T13:24:24.889Z,98125.47
2023-04-02T13:26:56.542Z,98122.56
2023-04-02T13:29:28.407Z,98131.69
2023-04-02T13:31:58.854Z,98134.53
2023-04-02T13:34:27.407Z,98143.47
2023-04-02T13:36:57.468Z,98145.28
2023-04-02T13:39:27.498Z,98144.28
2023-04-02T13:41:58.093Z,98151.53
2023-04-02T13:44:27.865Z,98145.13
2023-04-02T13:46:56.539Z,98146.97
2023-04-02T13:49:25.239Z,98163.13
2023-04-02T13:51:54.459Z,98154.84
2023-04-02T13:54:27.461Z,98158.41
2023-04-02T13:56:56.645Z,98157.53
2023-04-02T13:59:26.125Z,98151.16
2023-04-02T14:01:56.517Z,98169.31
2023-04-02T14:04:26.826Z,98169.78
2023-04-02T14:07:27.478Z,98167.66
2023-04-02T14:10:04.185Z,98180.91
2023-04-02T14:12:47.267Z,98183.50
2023-04-02T14:15:29.427Z,98181.44
2023-04-02T14:18:20.046Z,98186.19
2023-04-02T14:20:52.111Z,98185.81
2023-04-02T14:23:43.043Z,98191.66
2023-04-02T14:26:17.523Z,98198.25
2023-04-02T14:28:50.724Z,98201.59
2023-04-02T14:31:23.072Z,98195.38
2023-04-02T14:33:57.638Z,98206.13
2023-04-02T14:36:30.896Z,98203.63
2023-04-02T14:39:04.475Z,98211.88
2023-04-02T14:41:38.006Z,98214.38
2023-04-02T14:44:07.682Z,98211.53
2023-04-02T14:46:38.555Z,98215.03
2023-04-02T14:49:18.452Z,98219.59
2023-04-02T14:51:49.817Z,98222.06
2023-04-02T14:54:23.712Z,98226.44
2023-04-02T14:56:55.655Z,98223.56
2023-04-02T14:59:30.929Z,98224.75
2023-04-02T15:02:02.835Z,98229.16
2023-04-02T15:04:35.671Z,98227.28
2023-04-02T15:07:07.589Z,98228.47
2023-04-02T15:09:39.033Z,98235.53
2023-04-02T15:12:13.902Z,98230.16
2023-04-02T15:14:45.550Z,98240.06
2023-04-02T15:17:14.053Z,98236.38
2023-04-02T15:19:42.542Z,98239.25
2023-04-02T15:22:25.706Z,98243.59
2023-04-02T15:25:00.568Z,98247.31
2023-04-02T15:27:45.538Z,98250.81
2023-04-02T15:30:15.620Z,98258.06
2023-04-02T15:32:44.273Z,98254.53
2023-04-02T15:35:24.602Z,98262.41
2023-04-02T15:38:02.152Z,98264.09
2023-04-02T15:40:49.014Z,98273.16
2023-04-02T15:43:23.050Z,98280.25
2023-04-02T15:45:59.249Z,98274.84
2023-04-02T15:48:41.910Z,98283.09
2023-04-02T15:51:21.081Z,98278.53
2023-04-02T15:53:55.912Z,98292.00
2023-04-02T15:56:26.874Z,98297.56
2023-04-02T15:59:28.054Z,98291.16
2023-04-02T16:02:00.901Z,98293.84
2023-04-02T16:04:46.155Z,98290.69
2023-04-02T16:07:42.355Z,98298.75
2023-04-02T16:10:14.307Z,98306.63
2023-04-02T16:12:42.784Z,98307.66
2023-04-02T16:15:17.920Z,98314.53
2023-04-02T16:17:47.632Z,98308.69
2023-04-02T16:20:21.260Z,98313.88
2023-04-02T16:23:00.571Z,98323.63
2023-04-02T16:25:31.422Z,98324.47
2023-04-02T16:28:08.298Z,98324.47
2023-04-02T16:30:57.021Z,98327.31
2023-04-02T16:33:37.767Z,98327.31
2023-04-02T16:36:19.039Z,98331.69
2023-04-02T16:38:57.751Z,98337.06
2023-04-02T16:41:40.957Z,98336.09
2023-04-02T16:44:24.749Z,98344.19
2023-04-02T16:47:05.271Z,98336.03
2023-04-02T16:49:38.399Z,98347.22
2023-04-02T16:52:19.541Z,98349.38
2023-04-02T16:54:53.664Z,98353.75
2023-04-02T16:57:31.440Z,98350.84
2023-04-02T17:00:08.085Z,98356.91
2023-04-02T17:02:46.904Z,98363.09
2023-04-02T17:05:25.881Z,98364.78
2023-04-02T17:08:01.805Z,98368.69
2023-04-02T17:10:32.207Z,98378.41
2023-04-02T17:13:09.105Z,98366.66
2023-04-02T17:15:39.514Z,98374.72
2023-04-02T17:18:15.927Z,98385.13
2023-04-02T17:20:44.519Z,98381.75
2023-04-02T17:23:14.834Z,98382.91
2023-04-02T17:25:50.080Z,98388.16
2023-04-02T17:28:25.582Z,98392.34
2023-04-02T17:30:56.832Z,98399.56
2023-04-02T17:33:28.590Z,98398.25
2023-04-02T17:36:32.804Z,98401.94
2023-04-02T17:39:11.345Z,98405.66
2023-04-02T17:41:44.326Z,98404.00
2023-04-02T17:44:32.470Z,98412.06
2023-04-02T17:47:04.639Z,98406.69
2023-04-02T17:49:39.043Z,98416.59
2023-04-02T17:52:10.016Z,98410.00
2023-04-02T17:54:43.771Z,98425.31
2023-04-02T17:57:35.510Z,98428.34
2023-04-02T18:00:26.762Z,98427.16
2023-04-02T18:03:08.021Z,98432.75
2023-04-02T18:05:42.594Z,98440.63
2023-04-02T18:08:18.747Z,98440.63
2023-04-02T18:10:54.497Z,98441.63
2023-04-02T18:13:32.514Z,98438.13
2023-04-02T18:16:11.335Z,98435.59
2023-04-02T18:18:56.564Z,98446.72
2023-04-02T18:21:31.837Z,98438.94
2023-04-02T18:24:16.148Z,98443.97
2023-04-02T18:26:49.788Z,98452.72
2023-04-02T18:29:26.551Z,98453.53
2023-04-02T18:31:59.413Z,98446.31
2023-04-02T18:34:45.316Z,98457.41
2023-04-02T18:37:24.632Z,98458.41
2023-04-02T18:40:05.499Z,98454.88
2023-04-02T18:42:47.942Z,98462.97
2023-04-02T18:45:19.680Z,98462.97
2023-04-02T18:47:53.136Z,98466.47
2023-04-02T18:50:25.577Z,98474.53
2023-04-02T18:52:55.780Z,98468.34
2023-04-02T18:55:27.083Z,98474.53
2023-04-02T18:58:00.644Z,98472.88
2023-04-02T19:00:31.789Z,98479.09
2023-04-02T19:03:03.865Z,98469.16
2023-04-02T19:05:42.249Z,98476.25
2023-04-02T19:08:17.614Z,98484.47
2023-04-02T19:10:46.653Z,98489.84
2023-04-02T19:13:16.412Z,98492.38
2023-04-02T19:16:15.136Z,98491.72
2023-04-02T19:18:50.708Z,98496.25
2023-04-02T19:21:24.305Z,98495.41
2023-04-02T19:24:12.398Z,98497.09
2023-04-02T19:26:45.178Z,98498.94
2023-04-02T19:29:21.472Z,98494.59
2023-04-02T19:31:53.359Z,98504.47
2023-04-02T19:34:25.716Z,98496.41
2023-04-02T19:36:56.313Z,98502.81
2023-04-02T19:40:09.413Z,98506.53
2023-04-02T19:42:47.658Z,98502.97
2023-04-02T19:45:34.654Z,98505.66
2023-04-02T19:48:11.072Z,98518.13
2023-04-02T19:50:39.722Z,98510.22
2023-04-02T19:53:08.192Z,98509.22
2023-04-02T19:55:38.334Z,98511.91
2023-04-02T19:58:17.680Z,98510.22
2023-04-02T20:00:47.916Z,98512.06
2023-04-02T20:03:16.435Z,98514.59
2023-04-02T20:05:44.949Z,98512.91
2023-04-02T20:08:13.529Z,98513.56
2023-04-02T20:10:43.533Z,98520.81
2023-04-02T20:13:12.083Z,98519.97
2023-04-02T20:15:41.147Z,98523.50
2023-04-02T20:18:10.570Z,98519.97
2023-04-02T20:20:39.407Z,98522.66
2023-04-02T20:23:07.923Z,98527.03
2023-04-02T20:25:36.712Z,98529.72
2023-04-02T20:28:07.605Z,98532.41
2023-04-02T20:30:36.326Z,98530.53
2023-04-02T20:33:05.684Z,98538.59
2023-04-02T20:35:35.696Z,98536.09
2023-04-02T20:38:06.632Z,98547.69
2023-04-02T20:40:35.434Z,98551.69
2023-04-02T20:43:05.500Z,98555.56
2023-04-02T20:45:34.099Z,98553.25
2023-04-02T20:48:02.704Z,98554.25
2023-04-02T20:50:31.323Z,98551.72
2023-04-02T20:53:00.034Z,98550.91
2023-04-02T20:55:28.692Z,98550.22
2023-04-02T20:57:57.205Z,98551.06
2023-04-02T21:00:27.296Z,98559.31
2023-04-02T21:02:55.922Z,98560.16
2023-04-02T21:05:24.613Z,98562.00
2023-04-02T21:07:53.118Z,98569.03
2023-04-02T21:10:21.742Z,98562.84
2023-04-02T21:12:50.514Z,98561.16
2023-04-02T21:15:19.341Z,98563.84
2023-04-02T21:17:49.267Z,98567.38
2023-04-02T21:20:18.054Z,98566.56
2023-04-02T21:22:46.520Z,98556.63
2023-04-02T21:25:15.217Z,98562.00
2023-04-02T21:27:44.067Z,98567.53
2023-04-02T21:30:13.738Z,98571.09
2023-04-02T21:32:42.455Z,98571.94
2023-04-02T21:35:12.442Z,98578.13
2023-04-02T21:37:40.861Z,98581.84
2023-04-02T21:40:11.052Z,98581.66
2023-04-02T21:42:39.498Z,98572.09
2023-04-02T21:45:09.132Z,98571.09
2023-04-02T21:47:37.621Z,98581.84
2023-04-02T21:50:07.621Z,98575.59
2023-04-02T21:52:37.480Z,98585.19
2023-04-02T21:55:06.882Z,98594.28
2023-04-02T21:57:35.597Z,98583.50
2023-04-02T22:00:08.377Z,98601.66
2023-04-02T22:02:37.104Z,98607.03
2023-04-02T22:05:06.557Z,98606.03
2023-04-02T22:07:36.423Z,98604.34
2023-04-02T22:10:05.743Z,98602.50
2023-04-02T22:12:34.505Z,98610.75
2023-04-02T22:15:03.106Z,98608.38
2023-04-02T22:17:31.804Z,98611.41
2023-04-02T22:20:00.318Z,98611.59
2023-04-02T22:22:28.858Z,98618.81
2023-04-02T22:25:00.369Z,98617.13
2023-04-02T22:27:28.912Z,98617.97
2023-04-02T22:29:57.342Z,98621.66
2023-04-02T22:32:25.875Z,98624.34
2023-04-02T22:34:54.490Z,98629.56
2023-04-02T22:37:23.011Z,98619.81
2023-04-02T22:39:51.464Z,98634.13
2023-04-02T22:42:21.378Z,98634.13
2023-04-02T22:44:50.013Z,98632.41
2023-04-02T22:47:18.470Z,98629.72
2023-04-02T22:49:46.949Z,98634.28
2023-04-02T22:52:15.605Z,98628.88
2023-04-02T22:54:44.043Z,98638.81
2023-04-02T22:57:12.927Z,98640.66
2023-04-02T22:59:42.899Z,98631.75
2023-04-02T23:02:11.322Z,98637.97
2023-04-02T23:04:39.940Z,98635.28
2023-04-02T23:07:08.440Z,98635.28
2023-04-02T23:09:37.087Z,98639.81
2023-04-02T23:12:06.492Z,98643.34
2023-04-02T23:14:36.073Z,98643.34
2023-04-02T23:17:06.006Z,98644.34
2023-04-02T23:19:34.610Z,98637.31
2023-04-02T23:22:03.012Z,98635.94
2023-04-02T23:24:31.455Z,98634.28
2023-04-02T23:26:59.947Z,98638.97
2023-04-02T23:29:28.343Z,98635.44
2023-04-02T23:31:56.907Z,98642.50
2023-04-02T23:34:27.107Z,98645.38
2023-04-02T23:36:55.589Z,98639.16
2023-04-02T23:39:24.508Z,98640.00
2023-04-02T23:41:53.059Z,98640.16
2023-04-02T23:44:21.490Z,98642.69
2023-04-02T23:46:49.979Z,98643.50
2023-04-02T23:49:18.721Z,98643.66
2023-04-02T23:51:48.803Z,98640.00
2023-04-02T23:54:17.447Z,98642.69
2023-04-02T23:56:45.997Z,98645.38
2023-04-02T23:59:14.444Z,98654.41
